Impacts TAF Board
For situational awareness. Not to be used for flight planning purposes.
IDs:

KBOS - Boston/Logan Intl, MA, US

Issued at 1455 UTC 16 Feb 2019
Updated at 1531 UTC 16 Feb 2019
Potential Impact None Slight Moderate High
Time1454Z 16/16Z 16/17Z 16/18Z 16/19Z 16/20Z 16/21Z 16/22Z 16/23Z 17/00Z 17/01Z 17/02Z 17/03Z 17/04Z>>
Type OBS PRVL PRVL PRVL PRVL PRVL PRVL PRVL PRVL PRVL PRVL PRVL PRVL PRVL
VIS 10 >6 >6 >6 >6 >6 >6 >6 >6 >6 >6 >6 >6 >6
CIG -- -- -- -- -- -- -- -- -- -- -- -- -- --
Cover SCT FEW FEW FEW FEW FEW FEW FEW FEW FEW FEW FEW FEW FEW
FltCat VFR VFR VFR VFR VFR VFR VFR VFR VFR VFR VFR VFR VFR VFR
WX -- -- -- -- -- -- -- -- -- -- -- -- -- --
WDir 310 300 300 300 300 300 310 310 310 310 310 310 310 310
WSpd 10 10 10 10 10 10 10 10 10 10 10 10 10 10
WGst -- 17 17 17 17 17 -- -- -- -- -- -- -- --
Raw TAF
KBOS 161455Z 1615/1718 30010G17KT P6SM FEW040
  FM162100 31010KT P6SM FEW040


Raw METAR
KBOS 161454Z 31010KT 10SM FEW050 FEW150 SCT250 04/M07 A2979 RMK AO2 SLP086 T00391072 51015
KBOS 161354Z 27008KT 10SM SCT150 SCT250 02/M07 A2979 RMK AO2 SLP086 T00221072
KBOS 161254Z 28010KT 10SM FEW150 SCT220 BKN250 02/M07 A2977 RMK AO2 SLP081 T00221072

METAR Board
Radar Display
Forecast Discussion
For situational awareness. Not to be used for flight planning purposes.